createdAt,value
2023-01-23T00:01:33.946Z,69.75
2023-01-23T00:04:01.195Z,69.41
2023-01-23T00:06:29.152Z,69.03
2023-01-23T00:08:58.611Z,69.61
2023-01-23T00:11:28.590Z,70.04
2023-01-23T00:13:57.589Z,69.92
2023-01-23T00:16:26.544Z,68.89
2023-01-23T00:18:56.170Z,68.91
2023-01-23T00:21:25.990Z,68.84
2023-01-23T00:23:56.200Z,69.53
2023-01-23T00:26:26.676Z,69.05
2023-01-23T00:28:54.336Z,68.74
2023-01-23T00:31:25.344Z,69.22
2023-01-23T00:34:04.284Z,69.17
2023-01-23T00:36:37.877Z,69.51
2023-01-23T00:39:08.135Z,69.52
2023-01-23T00:41:35.478Z,69.94
2023-01-23T00:44:04.629Z,69.47
2023-01-23T00:46:31.695Z,69.21
2023-01-23T00:48:58.769Z,68.88
2023-01-23T00:51:26.127Z,69.21
2023-01-23T00:53:53.479Z,69.25
2023-01-23T00:56:20.484Z,69.23
2023-01-23T00:58:47.577Z,69.61
2023-01-23T01:01:16.341Z,70.18
2023-01-23T01:03:43.889Z,70.36
2023-01-23T01:06:12.002Z,69.75
2023-01-23T01:08:39.313Z,69.70
2023-01-23T01:11:06.499Z,69.98
2023-01-23T01:13:33.865Z,69.31
2023-01-23T01:16:02.232Z,69.04
2023-01-23T01:18:30.212Z,69.56
2023-01-23T01:20:57.980Z,68.82
2023-01-23T01:23:25.549Z,69.09
2023-01-23T01:25:52.709Z,70.13
2023-01-23T01:28:21.384Z,69.67
2023-01-23T01:30:48.385Z,69.56
2023-01-23T01:33:15.507Z,69.50
2023-01-23T01:35:42.504Z,69.10
2023-01-23T01:38:09.499Z,69.16
2023-01-23T01:40:37.308Z,69.60
2023-01-23T01:43:08.226Z,68.99
2023-01-23T01:46:12.214Z,69.25
2023-01-23T01:49:03.910Z,69.10
2023-01-23T01:51:44.437Z,69.55
2023-01-23T01:54:29.214Z,69.08
2023-01-23T01:57:05.161Z,68.64
2023-01-23T02:00:07.375Z,68.95
2023-01-23T02:02:43.985Z,68.67
2023-01-23T02:05:15.689Z,68.41
2023-01-23T02:07:49.781Z,68.92
2023-01-23T02:10:16.908Z,68.79
2023-01-23T02:12:48.952Z,69.78
2023-01-23T02:15:17.389Z,69.00
2023-01-23T02:17:47.300Z,69.17
2023-01-23T02:20:34.862Z,69.15
2023-01-23T02:23:17.079Z,69.22
2023-01-23T02:25:43.944Z,69.34
2023-01-23T02:28:15.243Z,68.58
2023-01-23T02:30:46.899Z,69.35
2023-01-23T02:33:19.967Z,68.88
2023-01-23T02:35:47.393Z,69.13
2023-01-23T02:38:15.246Z,68.62
2023-01-23T02:40:43.055Z,68.29
2023-01-23T02:43:21.382Z,68.79
2023-01-23T02:45:56.109Z,68.39
2023-01-23T02:48:24.401Z,68.57
2023-01-23T02:50:51.430Z,68.62
2023-01-23T02:53:18.492Z,68.31
2023-01-23T02:55:46.023Z,68.20
2023-01-23T02:58:32.164Z,68.24
2023-01-23T03:00:59.297Z,69.00
2023-01-23T03:03:29.130Z,68.41
2023-01-23T03:05:57.940Z,68.81
2023-01-23T03:08:33.462Z,68.68
2023-01-23T03:11:02.309Z,68.96
2023-01-23T03:13:29.763Z,67.97
2023-01-23T03:16:00.051Z,68.56
2023-01-23T03:18:31.061Z,68.16
2023-01-23T03:21:05.798Z,67.87
2023-01-23T03:23:33.157Z,67.57
2023-01-23T03:26:00.127Z,67.84
2023-01-23T03:28:48.967Z,67.99
2023-01-23T03:31:16.875Z,67.87
2023-01-23T03:33:45.358Z,68.65
2023-01-23T03:36:13.841Z,67.95
2023-01-23T03:39:01.846Z,68.29
2023-01-23T03:41:29.156Z,67.93
2023-01-23T03:44:01.556Z,67.79
2023-01-23T03:46:28.565Z,68.40
2023-01-23T03:48:55.538Z,68.38
2023-01-23T03:51:22.738Z,68.21
2023-01-23T03:53:50.597Z,68.10
2023-01-23T03:56:17.587Z,68.06
2023-01-23T03:58:44.578Z,68.05
2023-01-23T04:01:14.023Z,68.48
2023-01-23T04:03:43.437Z,68.99
2023-01-23T04:06:10.880Z,68.94
2023-01-23T04:08:38.479Z,68.16
2023-01-23T04:11:07.783Z,68.55
2023-01-23T04:13:35.971Z,68.88
2023-01-23T04:16:04.181Z,68.53
2023-01-23T04:18:31.684Z,68.42
2023-01-23T04:20:59.619Z,68.35
2023-01-23T04:23:26.760Z,68.36
2023-01-23T04:25:54.345Z,68.14
2023-01-23T04:28:22.139Z,67.88
2023-01-23T04:30:51.802Z,67.92
2023-01-23T04:33:25.620Z,68.46
2023-01-23T04:36:02.020Z,67.50
2023-01-23T04:38:31.559Z,68.04
2023-01-23T04:41:18.073Z,67.98
2023-01-23T04:43:45.216Z,67.72
2023-01-23T04:46:12.417Z,68.17
2023-01-23T04:48:59.596Z,68.04
2023-01-23T04:51:27.575Z,67.57
2023-01-23T04:53:54.701Z,67.78
2023-01-23T04:56:22.720Z,67.95
2023-01-23T04:58:50.332Z,67.50
2023-01-23T05:01:23.410Z,67.12
2023-01-23T05:03:55.530Z,67.43
2023-01-23T05:06:22.815Z,67.72
2023-01-23T05:08:52.595Z,67.79
2023-01-23T05:11:25.912Z,67.42
2023-01-23T05:13:52.891Z,67.11
2023-01-23T05:16:21.297Z,67.60
2023-01-23T05:19:06.825Z,67.02
2023-01-23T05:21:34.475Z,67.74
2023-01-23T05:24:01.558Z,67.06
2023-01-23T05:26:28.638Z,66.88
2023-01-23T05:28:56.633Z,67.08
2023-01-23T05:31:25.269Z,68.19
2023-01-23T05:34:12.288Z,67.55
2023-01-23T05:36:40.453Z,67.70
2023-01-23T05:39:08.121Z,67.61
2023-01-23T05:41:35.160Z,67.40
2023-01-23T05:44:21.285Z,67.92
2023-01-23T05:46:52.789Z,68.08
2023-01-23T05:49:19.848Z,67.82
2023-01-23T05:51:47.004Z,67.45
2023-01-23T05:54:14.367Z,67.18
2023-01-23T05:56:45.013Z,67.42
2023-01-23T05:59:31.255Z,67.50
2023-01-23T06:02:13.351Z,67.87
2023-01-23T06:05:07.057Z,67.40
2023-01-23T06:07:56.551Z,66.83
2023-01-23T06:10:24.398Z,67.41
2023-01-23T06:12:51.489Z,67.66
2023-01-23T06:15:19.003Z,66.78
2023-01-23T06:17:46.506Z,67.60
2023-01-23T06:20:13.979Z,67.16
2023-01-23T06:22:45.693Z,67.68
2023-01-23T06:25:14.311Z,67.27
2023-01-23T06:27:41.606Z,66.77
2023-01-23T06:30:10.516Z,67.03
2023-01-23T06:32:41.130Z,66.91
2023-01-23T06:35:09.872Z,66.82
2023-01-23T06:37:42.457Z,67.08
2023-01-23T06:40:15.742Z,67.65
2023-01-23T06:42:55.249Z,67.34
2023-01-23T06:45:22.910Z,67.01
2023-01-23T06:47:52.628Z,67.23
2023-01-23T06:50:20.160Z,68.27
2023-01-23T06:52:47.402Z,67.17
2023-01-23T06:55:14.684Z,68.10
2023-01-23T06:57:42.998Z,67.78
2023-01-23T07:00:11.396Z,67.02
2023-01-23T07:02:40.573Z,67.62
2023-01-23T07:05:08.197Z,67.28
2023-01-23T07:07:36.431Z,67.85
2023-01-23T07:10:03.649Z,67.45
2023-01-23T07:12:31.114Z,67.20
2023-01-23T07:14:58.130Z,66.88
2023-01-23T07:17:33.432Z,66.69
2023-01-23T07:20:00.862Z,67.14
2023-01-23T07:22:27.883Z,67.28
2023-01-23T07:24:55.049Z,66.81
2023-01-23T07:27:22.005Z,66.55
2023-01-23T07:29:49.006Z,66.70
2023-01-23T07:32:16.071Z,67.19
2023-01-23T07:34:43.107Z,66.58
2023-01-23T07:37:10.117Z,66.70
2023-01-23T07:39:37.064Z,65.90
2023-01-23T07:42:04.088Z,66.15
2023-01-23T07:44:31.187Z,66.37
2023-01-23T07:46:58.183Z,66.44
2023-01-23T07:49:25.257Z,66.34
2023-01-23T07:51:52.232Z,66.28
2023-01-23T07:54:19.266Z,66.15
2023-01-23T07:56:50.242Z,66.47
2023-01-23T07:59:17.294Z,66.62
2023-01-23T08:01:44.750Z,65.67
2023-01-23T08:04:11.784Z,66.25
2023-01-23T08:06:39.012Z,66.29
2023-01-23T08:09:05.987Z,65.81
2023-01-23T08:11:34.370Z,66.35
2023-01-23T08:14:01.685Z,66.16
2023-01-23T08:16:29.246Z,66.20
2023-01-23T08:18:56.289Z,66.17
2023-01-23T08:21:23.708Z,66.16
2023-01-23T08:23:50.682Z,65.98
2023-01-23T08:26:17.958Z,66.34
2023-01-23T08:28:46.067Z,65.93
2023-01-23T08:31:13.574Z,66.23
2023-01-23T08:33:40.653Z,66.02
2023-01-23T08:36:11.232Z,66.51
2023-01-23T08:38:38.888Z,66.16
2023-01-23T08:41:06.908Z,66.74
2023-01-23T08:43:33.903Z,66.02
2023-01-23T08:46:00.950Z,66.08
2023-01-23T08:48:28.801Z,66.58
2023-01-23T08:51:08.232Z,66.66
2023-01-23T08:53:36.543Z,65.69
2023-01-23T08:56:06.719Z,65.71
2023-01-23T08:58:34.268Z,66.29
2023-01-23T09:01:01.279Z,65.67
2023-01-23T09:03:28.722Z,66.38
2023-01-23T09:05:55.854Z,66.47
2023-01-23T09:08:22.865Z,66.04
2023-01-23T09:10:49.929Z,65.86
2023-01-23T09:13:19.744Z,66.03
2023-01-23T09:15:47.240Z,65.45
2023-01-23T09:18:14.195Z,65.37
2023-01-23T09:20:41.538Z,65.39
2023-01-23T09:23:08.617Z,65.89
2023-01-23T09:25:35.835Z,65.76
2023-01-23T09:28:03.617Z,66.15
2023-01-23T09:30:30.617Z,66.07
2023-01-23T09:32:57.657Z,65.71
2023-01-23T09:35:24.780Z,65.79
2023-01-23T09:38:00.959Z,66.08
2023-01-23T09:40:32.181Z,67.20
2023-01-23T09:43:11.844Z,66.81
2023-01-23T09:45:41.446Z,67.08
2023-01-23T09:48:17.645Z,66.59
2023-01-23T09:51:07.043Z,66.23
2023-01-23T09:53:40.013Z,66.40
2023-01-23T09:56:20.677Z,66.00
2023-01-23T09:59:12.255Z,65.35
2023-01-23T10:01:39.472Z,65.50
2023-01-23T10:04:10.645Z,65.44
2023-01-23T10:07:22.483Z,65.10
2023-01-23T10:10:08.261Z,65.43
2023-01-23T10:12:54.993Z,65.70
2023-01-23T10:15:42.167Z,65.75
2023-01-23T10:18:39.919Z,65.53
2023-01-23T10:21:06.839Z,65.01
2023-01-23T10:23:48.131Z,65.28
2023-01-23T10:26:24.931Z,65.33
2023-01-23T10:28:59.472Z,65.57
2023-01-23T10:31:32.624Z,65.20
2023-01-23T10:34:13.657Z,65.27
2023-01-23T10:36:55.122Z,64.81
2023-01-23T10:39:40.665Z,64.98
2023-01-23T10:42:14.126Z,65.13
2023-01-23T10:44:41.053Z,64.84
2023-01-23T10:47:32.780Z,64.54
2023-01-23T10:50:00.381Z,64.86
2023-01-23T10:52:33.941Z,64.64
2023-01-23T10:55:01.681Z,64.23
2023-01-23T10:57:58.345Z,64.67
2023-01-23T11:00:36.050Z,64.14
2023-01-23T11:03:26.359Z,64.06
2023-01-23T11:05:56.301Z,64.28
2023-01-23T11:08:36.556Z,64.75
2023-01-23T11:11:18.740Z,64.09
2023-01-23T11:13:49.384Z,64.17
2023-01-23T11:16:22.847Z,64.26
2023-01-23T11:19:10.077Z,63.97
2023-01-23T11:21:54.947Z,63.92
2023-01-23T11:24:39.037Z,64.07
2023-01-23T11:27:20.575Z,63.58
2023-01-23T11:30:11.292Z,63.89
2023-01-23T11:32:59.486Z,64.28
2023-01-23T11:35:30.638Z,64.11
2023-01-23T11:38:01.742Z,63.63
2023-01-23T11:40:28.720Z,63.47
2023-01-23T11:42:55.915Z,63.39
2023-01-23T11:45:50.106Z,63.37
2023-01-23T11:48:24.758Z,64.08
2023-01-23T11:51:11.491Z,63.48
2023-01-23T11:53:48.300Z,63.89
2023-01-23T11:56:24.381Z,63.14
2023-01-23T11:59:32.805Z,63.72
2023-01-23T12:02:13.343Z,63.32
2023-01-23T12:04:59.151Z,63.77
2023-01-23T12:07:26.981Z,63.69
2023-01-23T12:10:02.177Z,64.08
2023-01-23T12:12:45.820Z,63.69
2023-01-23T12:15:43.802Z,63.84
2023-01-23T12:18:52.619Z,63.77
2023-01-23T12:21:27.620Z,63.98
2023-01-23T12:24:13.016Z,63.90
2023-01-23T12:26:56.312Z,63.87
2023-01-23T12:29:36.630Z,64.29
2023-01-23T12:32:26.456Z,64.27
2023-01-23T12:35:14.612Z,63.52
2023-01-23T12:37:44.699Z,63.42
2023-01-23T12:40:24.448Z,64.09
2023-01-23T12:43:13.370Z,63.79
2023-01-23T12:45:53.433Z,63.36
2023-01-23T12:48:28.658Z,64.05
2023-01-23T12:51:17.159Z,63.68
2023-01-23T12:53:48.740Z,64.22
2023-01-23T12:56:23.499Z,64.29
2023-01-23T12:59:14.484Z,64.55
2023-01-23T13:02:12.381Z,64.54
2023-01-23T13:04:50.905Z,64.38
2023-01-23T13:07:41.476Z,64.33
2023-01-23T13:11:01.711Z,64.01
2023-01-23T13:13:29.672Z,64.62
2023-01-23T13:16:10.763Z,64.10
2023-01-23T13:18:57.480Z,64.55
2023-01-23T13:21:43.832Z,64.33
2023-01-23T13:25:12.720Z,64.64
2023-01-23T13:27:41.421Z,63.80
2023-01-23T13:30:26.485Z,64.29
2023-01-23T13:33:00.862Z,64.48
2023-01-23T13:35:40.284Z,64.71
2023-01-23T13:38:22.285Z,64.74
2023-01-23T13:41:14.482Z,64.28
2023-01-23T13:43:48.028Z,64.71
2023-01-23T13:46:39.631Z,64.11
2023-01-23T14:21:55.131Z,64.78
2023-01-23T14:24:42.669Z,64.78
2023-01-23T14:27:21.808Z,64.34
2023-01-23T14:30:01.148Z,64.99
2023-01-23T14:32:33.459Z,64.80
2023-01-23T14:35:00.486Z,64.85
2023-01-23T14:37:29.405Z,64.76
2023-01-23T14:40:01.973Z,65.18
2023-01-23T14:42:34.840Z,64.71
2023-01-23T14:45:03.058Z,64.93
2023-01-23T14:47:42.380Z,65.41
2023-01-23T14:50:11.940Z,65.28
2023-01-23T14:52:39.008Z,65.02
2023-01-23T14:55:29.340Z,65.11
2023-01-23T14:57:59.478Z,64.97
2023-01-23T15:00:28.001Z,64.28
2023-01-23T15:02:56.471Z,65.34
2023-01-23T15:05:33.650Z,64.86
2023-01-23T15:08:06.050Z,64.37
2023-01-23T15:10:41.534Z,64.85
2023-01-23T15:13:34.491Z,64.71
2023-01-23T15:16:04.805Z,64.89
2023-01-23T15:18:35.081Z,65.38
2023-01-23T15:21:07.307Z,65.00
2023-01-23T15:23:39.129Z,64.62
2023-01-23T15:26:11.911Z,65.01
2023-01-23T15:28:48.896Z,64.62
2023-01-23T15:31:31.708Z,65.03
2023-01-23T15:34:16.893Z,64.58
2023-01-23T15:36:49.621Z,64.35
2023-01-23T15:39:24.501Z,64.99
2023-01-23T15:42:02.260Z,65.56
2023-01-23T15:44:31.868Z,64.73
2023-01-23T15:47:04.027Z,64.95
2023-01-23T15:49:33.147Z,64.79
2023-01-23T15:52:02.956Z,65.40
2023-01-23T15:54:36.068Z,64.90
2023-01-23T15:57:08.932Z,64.85
2023-01-23T15:59:36.917Z,64.96
2023-01-23T16:02:05.338Z,64.78
2023-01-23T16:04:33.216Z,65.32
2023-01-23T16:07:05.438Z,65.48
2023-01-23T16:09:35.424Z,65.14
2023-01-23T16:12:03.205Z,65.00
2023-01-23T16:14:30.368Z,64.96
2023-01-23T16:17:04.749Z,64.66
2023-01-23T16:19:38.597Z,64.64
2023-01-23T16:22:05.986Z,64.62
2023-01-23T16:24:39.528Z,64.83
2023-01-23T16:27:07.121Z,65.03
2023-01-23T16:29:35.357Z,64.33
2023-01-23T16:32:03.411Z,64.54
2023-01-23T16:34:30.581Z,65.09
2023-01-23T16:37:01.028Z,64.85
2023-01-23T16:39:31.290Z,64.94
2023-01-23T16:41:58.821Z,64.72
2023-01-23T16:44:27.039Z,64.76
2023-01-23T16:46:54.153Z,64.29
2023-01-23T16:49:21.507Z,64.67
2023-01-23T16:51:56.467Z,64.35
2023-01-23T16:54:24.451Z,64.67
2023-01-23T16:56:52.925Z,64.47
2023-01-23T16:59:39.097Z,64.67
2023-01-23T17:02:23.418Z,63.28
2023-01-23T17:04:50.667Z,63.78
2023-01-23T17:07:19.476Z,63.76
2023-01-23T17:09:47.525Z,64.16
2023-01-23T17:12:18.980Z,64.25
2023-01-23T17:14:47.341Z,64.06
2023-01-23T17:17:25.844Z,63.65
2023-01-23T17:19:53.371Z,64.24
2023-01-23T17:22:24.562Z,63.33
2023-01-23T17:24:51.585Z,63.62
2023-01-23T17:27:18.634Z,63.79
2023-01-23T17:29:45.650Z,63.79
2023-01-23T17:32:35.446Z,63.86
2023-01-23T17:35:06.470Z,63.80
2023-01-23T17:37:35.264Z,63.77
2023-01-23T17:40:02.696Z,63.95
2023-01-23T17:42:31.047Z,63.36
2023-01-23T17:44:58.027Z,63.68
2023-01-23T17:47:25.777Z,63.17
2023-01-23T17:49:54.874Z,63.51
2023-01-23T17:52:22.424Z,63.36
2023-01-23T17:54:49.821Z,63.57
2023-01-23T17:57:17.820Z,63.77
2023-01-23T17:59:45.474Z,63.71
2023-01-23T18:02:26.931Z,63.58
2023-01-23T18:04:55.400Z,63.79
2023-01-23T18:07:22.544Z,63.52
2023-01-23T18:09:49.896Z,63.35
2023-01-23T18:12:28.853Z,63.24
2023-01-23T18:15:13.821Z,63.39
2023-01-23T18:18:12.915Z,63.25
2023-01-23T18:20:40.265Z,63.28
2023-01-23T18:23:11.937Z,63.46
2023-01-23T18:25:44.331Z,62.82
2023-01-23T18:28:21.759Z,63.61
2023-01-23T18:31:02.932Z,62.85
2023-01-23T18:33:35.945Z,63.39
2023-01-23T18:36:33.007Z,63.46
2023-01-23T18:39:36.156Z,63.31
2023-01-23T18:42:24.381Z,63.46
2023-01-23T18:44:59.405Z,63.23
2023-01-23T18:47:26.673Z,63.15
2023-01-23T18:49:53.849Z,63.49
2023-01-23T18:52:25.075Z,62.86
2023-01-23T18:55:00.139Z,62.51
2023-01-23T18:57:32.762Z,63.07
2023-01-23T19:00:12.840Z,62.92
2023-01-23T19:02:55.341Z,63.25
2023-01-23T19:05:30.156Z,63.25
2023-01-23T19:07:57.848Z,62.80
2023-01-23T19:10:29.188Z,63.15
2023-01-23T19:13:42.302Z,62.69
2023-01-23T19:16:17.587Z,62.94
2023-01-23T19:18:53.625Z,62.91
2023-01-23T19:21:28.495Z,62.60
2023-01-23T19:24:00.708Z,62.49
2023-01-23T19:26:30.406Z,63.06
2023-01-23T19:28:59.779Z,63.07
2023-01-23T19:31:31.659Z,63.02
2023-01-23T19:33:59.831Z,63.45
2023-01-23T19:36:29.274Z,63.31
2023-01-23T19:39:03.236Z,63.05
2023-01-23T19:41:43.602Z,63.17
2023-01-23T19:44:16.868Z,62.89
2023-01-23T19:46:44.484Z,63.27
2023-01-23T19:49:12.298Z,63.07
2023-01-23T19:51:40.400Z,62.92
2023-01-23T19:54:09.583Z,62.90
2023-01-23T19:56:36.866Z,62.91
2023-01-23T19:59:03.847Z,63.08
2023-01-23T20:01:43.544Z,63.57
2023-01-23T20:04:20.866Z,63.27
2023-01-23T20:06:49.198Z,62.85
2023-01-23T20:09:16.249Z,63.46
2023-01-23T20:11:44.435Z,63.45
2023-01-23T20:14:12.420Z,63.17
2023-01-23T20:16:41.084Z,63.43
2023-01-23T20:19:08.476Z,63.23
2023-01-23T20:21:35.605Z,62.80
2023-01-23T20:24:02.630Z,62.78
2023-01-23T20:26:29.685Z,63.47
2023-01-23T20:28:58.201Z,63.13
2023-01-23T20:31:29.130Z,63.39
2023-01-23T20:33:57.405Z,63.08
2023-01-23T20:36:24.401Z,63.37
2023-01-23T20:38:51.528Z,63.25
2023-01-23T20:41:34.704Z,63.13
2023-01-23T20:44:14.297Z,63.70
2023-01-23T20:46:41.669Z,63.72
2023-01-23T20:49:14.352Z,63.11
2023-01-23T20:51:41.590Z,63.53
2023-01-23T20:54:08.628Z,63.34
2023-01-23T20:56:38.848Z,63.35
2023-01-23T20:59:23.120Z,63.41
2023-01-23T21:02:08.802Z,62.78
2023-01-23T21:04:37.454Z,63.49
2023-01-23T21:07:04.888Z,63.19
2023-01-23T21:09:33.643Z,63.33
2023-01-23T21:12:00.775Z,63.56
2023-01-23T21:14:28.179Z,63.46
2023-01-23T21:16:55.276Z,63.51
2023-01-23T21:19:22.510Z,63.56
2023-01-23T21:21:49.578Z,63.55
2023-01-23T21:24:16.744Z,63.49
2023-01-23T21:26:43.970Z,63.93
2023-01-23T21:29:11.161Z,63.74
2023-01-23T21:31:39.681Z,63.65
2023-01-23T21:34:12.739Z,63.69
2023-01-23T21:36:41.596Z,63.94
2023-01-23T21:39:10.609Z,63.42
2023-01-23T21:41:37.607Z,63.64
2023-01-23T21:44:04.676Z,63.51
2023-01-23T21:46:34.223Z,63.59
2023-01-23T21:49:01.583Z,64.04
2023-01-23T21:51:28.520Z,63.38
2023-01-23T21:53:55.827Z,63.73
2023-01-23T21:56:23.837Z,63.47
2023-01-23T21:58:51.028Z,63.24
2023-01-23T22:01:32.969Z,63.39
2023-01-23T22:04:09.941Z,63.71
2023-01-23T22:06:39.000Z,63.87
2023-01-23T22:09:07.000Z,63.71
2023-01-23T22:11:34.591Z,63.79
2023-01-23T22:14:01.614Z,63.52
2023-01-23T22:16:47.000Z,63.45
2023-01-23T22:19:17.084Z,63.48
2023-01-23T22:21:46.457Z,63.84
2023-01-23T22:24:14.364Z,63.79
2023-01-23T22:26:41.361Z,63.37
2023-01-23T22:29:08.928Z,63.37
2023-01-23T22:31:36.009Z,63.37
2023-01-23T22:34:03.149Z,63.50
2023-01-23T22:36:30.121Z,64.02
2023-01-23T22:38:57.203Z,63.73
2023-01-23T22:41:25.009Z,63.95
2023-01-23T22:43:56.541Z,63.80
2023-01-23T22:46:24.018Z,64.16
2023-01-23T22:48:51.761Z,63.75
2023-01-23T22:51:23.668Z,64.44
2023-01-23T22:53:52.398Z,63.78
2023-01-23T22:56:19.637Z,63.93
2023-01-23T22:58:48.328Z,64.32
2023-01-23T23:01:16.362Z,64.60
2023-01-23T23:03:43.635Z,64.23
2023-01-23T23:06:13.745Z,64.35
2023-01-23T23:08:41.063Z,64.59
2023-01-23T23:11:10.888Z,63.82
2023-01-23T23:13:39.597Z,64.34
2023-01-23T23:16:11.980Z,64.47
2023-01-23T23:18:39.470Z,64.39
2023-01-23T23:21:09.924Z,64.40
2023-01-23T23:23:37.394Z,64.89
2023-01-23T23:26:06.539Z,64.48
2023-01-23T23:28:34.176Z,64.54
2023-01-23T23:31:01.528Z,64.51
2023-01-23T23:33:28.633Z,64.80
2023-01-23T23:35:55.795Z,64.77
2023-01-23T23:38:22.735Z,64.70
2023-01-23T23:40:56.560Z,64.89
2023-01-23T23:43:24.327Z,64.59
2023-01-23T23:45:56.605Z,64.74
2023-01-23T23:48:24.635Z,64.83
2023-01-23T23:50:52.041Z,64.36
2023-01-23T23:53:19.180Z,64.56
2023-01-23T23:55:47.159Z,65.03
2023-01-23T23:58:16.076Z,64.85
